createdAt,value
2023-06-10T00:00:24.430Z,0
2023-06-10T00:01:40.573Z,0
2023-06-10T00:02:56.706Z,0
2023-06-10T00:04:12.841Z,0
2023-06-10T00:05:28.973Z,0
2023-06-10T00:06:45.121Z,0
2023-06-10T00:08:01.235Z,0
2023-06-10T00:09:17.376Z,0
2023-06-10T00:10:33.593Z,0
2023-06-10T00:11:48.817Z,0
2023-06-10T00:13:04.041Z,0
2023-06-10T00:14:20.164Z,0
2023-06-10T00:15:36.305Z,0
2023-06-10T00:16:52.440Z,0
2023-06-10T00:18:08.569Z,0
2023-06-10T00:19:24.697Z,0
2023-06-10T00:20:40.850Z,0
2023-06-10T00:21:56.980Z,0
2023-06-10T00:23:13.112Z,0
2023-06-10T00:24:29.255Z,0
2023-06-10T00:25:45.395Z,0
2023-06-10T00:27:01.544Z,0
2023-06-10T00:28:17.674Z,0
2023-06-10T00:29:33.802Z,0
2023-06-10T00:30:49.924Z,0
2023-06-10T00:32:06.063Z,0
2023-06-10T00:33:22.219Z,0
2023-06-10T00:34:38.339Z,0
2023-06-10T00:35:54.489Z,0
2023-06-10T00:37:10.620Z,0
2023-06-10T00:38:26.751Z,0
2023-06-10T00:39:42.898Z,0
2023-06-10T00:40:59.022Z,0
2023-06-10T00:42:15.169Z,0
2023-06-10T00:43:31.296Z,0
2023-06-10T00:46:03.819Z,0
2023-06-10T00:47:19.023Z,0
2023-06-10T00:48:34.179Z,0
2023-06-10T00:49:50.334Z,0
2023-06-10T00:51:06.453Z,0
2023-06-10T00:52:22.590Z,0
2023-06-10T00:53:38.728Z,0
2023-06-10T00:54:54.868Z,0
2023-06-10T00:56:11.003Z,0
2023-06-10T00:57:27.137Z,0
2023-06-10T00:58:43.277Z,0
2023-06-10T00:59:59.406Z,0
2023-06-10T01:01:15.539Z,0
2023-06-10T01:02:31.693Z,0
2023-06-10T01:03:47.824Z,0
2023-06-10T01:05:03.961Z,0
2023-06-10T01:06:20.080Z,0
2023-06-10T01:07:36.217Z,0
2023-06-10T01:08:52.360Z,0
2023-06-10T01:10:08.498Z,0
2023-06-10T01:11:24.643Z,0
2023-06-10T01:12:40.777Z,0
2023-06-10T01:13:56.896Z,0
2023-06-10T01:15:13.057Z,0
2023-06-10T01:16:29.176Z,0
2023-06-10T01:17:45.311Z,0
2023-06-10T01:19:01.456Z,0
2023-06-10T01:20:17.588Z,0
2023-06-10T01:21:33.721Z,0
2023-06-10T01:22:50.012Z,0
2023-06-10T01:24:06.147Z,0
2023-06-10T01:25:22.285Z,0
2023-06-10T01:26:38.420Z,0
2023-06-10T01:27:54.559Z,0
2023-06-10T01:29:10.695Z,0
2023-06-10T01:30:26.820Z,0
2023-06-10T01:31:42.958Z,0
2023-06-10T01:32:59.081Z,0
2023-06-10T01:34:15.232Z,0
2023-06-10T01:35:31.377Z,0
2023-06-10T01:36:47.513Z,0
2023-06-10T01:38:03.645Z,0
2023-06-10T01:39:19.773Z,0
2023-06-10T01:40:35.915Z,0
2023-06-10T01:41:52.060Z,0
2023-06-10T01:43:08.193Z,0
2023-06-10T01:44:24.328Z,0
2023-06-10T01:45:40.442Z,0
2023-06-10T01:46:56.594Z,0
2023-06-10T01:48:12.725Z,0
2023-06-10T01:49:28.859Z,0
2023-06-10T01:50:44.992Z,0
2023-06-10T01:52:01.136Z,0
2023-06-10T01:53:17.289Z,0
2023-06-10T01:54:33.466Z,0
2023-06-10T01:55:48.679Z,0
2023-06-10T01:57:03.839Z,0
2023-06-10T01:58:19.971Z,0
2023-06-10T01:59:36.098Z,0
2023-06-10T02:00:52.231Z,0
2023-06-10T02:02:08.360Z,0
2023-06-10T02:03:24.514Z,0
2023-06-10T02:04:40.646Z,0
2023-06-10T02:05:56.777Z,0
2023-06-10T02:07:12.911Z,0
2023-06-10T02:08:29.043Z,0
2023-06-10T02:09:45.189Z,0
2023-06-10T02:11:01.329Z,0
2023-06-10T02:12:17.463Z,0
2023-06-10T02:13:33.596Z,0
2023-06-10T02:14:49.733Z,0
2023-06-10T02:16:05.874Z,0
2023-06-10T02:17:22.004Z,0
2023-06-10T02:18:38.128Z,0
2023-06-10T02:19:54.262Z,0
2023-06-10T02:21:10.399Z,0
2023-06-10T02:22:26.552Z,0
2023-06-10T02:23:42.682Z,0
2023-06-10T02:24:58.810Z,0
2023-06-10T02:26:14.958Z,0
2023-06-10T02:27:31.083Z,0
2023-06-10T02:28:47.228Z,0
2023-06-10T02:30:03.362Z,0
2023-06-10T02:31:19.506Z,0
2023-06-10T02:32:35.639Z,0
2023-06-10T02:33:51.757Z,0
2023-06-10T02:35:07.910Z,0
2023-06-10T02:36:24.056Z,0
2023-06-10T02:37:40.175Z,0
2023-06-10T02:38:56.305Z,0
2023-06-10T02:40:12.438Z,0
2023-06-10T02:41:28.586Z,0
2023-06-10T02:42:44.720Z,0
2023-06-10T02:44:00.924Z,0
2023-06-10T02:45:16.136Z,0
2023-06-10T02:46:32.274Z,0
2023-06-10T02:47:48.403Z,0
2023-06-10T02:49:04.531Z,0
2023-06-10T02:50:20.669Z,0
2023-06-10T02:51:36.801Z,0
2023-06-10T02:52:52.951Z,0
2023-06-10T02:54:09.078Z,0
2023-06-10T02:55:25.214Z,0
2023-06-10T02:56:41.361Z,0
2023-06-10T02:57:57.481Z,0
2023-06-10T02:59:13.626Z,0
2023-06-10T03:00:29.757Z,0
2023-06-10T03:01:45.905Z,0
2023-06-10T03:03:02.040Z,0
2023-06-10T03:04:18.172Z,0
2023-06-10T03:05:34.325Z,0
2023-06-10T03:06:50.453Z,0
2023-06-10T03:08:06.585Z,5
2023-06-10T03:09:22.724Z,5
2023-06-10T03:10:38.855Z,5
2023-06-10T03:11:54.990Z,5
2023-06-10T03:13:11.126Z,5
2023-06-10T03:14:27.262Z,5
2023-06-10T03:15:43.405Z,5
2023-06-10T03:16:59.586Z,5
2023-06-10T03:18:14.826Z,5
2023-06-10T03:19:30.036Z,5
2023-06-10T03:20:46.172Z,5
2023-06-10T03:22:02.312Z,11
2023-06-10T03:23:18.443Z,11
2023-06-10T03:24:34.573Z,11
2023-06-10T03:25:50.710Z,11
2023-06-10T03:27:06.855Z,11
2023-06-10T03:28:22.993Z,11
2023-06-10T03:29:39.121Z,11
2023-06-10T03:32:11.397Z,11
2023-06-10T03:33:27.532Z,11
2023-06-10T03:34:43.674Z,11
2023-06-10T03:35:59.812Z,11
2023-06-10T03:37:15.945Z,16
2023-06-10T03:38:32.084Z,16
2023-06-10T03:39:48.212Z,16
2023-06-10T03:41:04.363Z,16
2023-06-10T03:42:20.493Z,16
2023-06-10T03:43:36.626Z,16
2023-06-10T03:44:52.749Z,16
2023-06-10T03:46:08.887Z,16
2023-06-10T03:47:25.036Z,16
2023-06-10T03:48:41.168Z,16
2023-06-10T03:49:57.304Z,22
2023-06-10T03:51:13.492Z,22
2023-06-10T03:52:28.727Z,22
2023-06-10T03:53:43.942Z,22
2023-06-10T03:54:59.085Z,22
2023-06-10T03:56:15.252Z,28
2023-06-10T03:57:31.383Z,28
2023-06-10T03:58:47.500Z,28
2023-06-10T04:00:03.637Z,28
2023-06-10T04:01:19.765Z,28
2023-06-10T04:02:35.922Z,28
2023-06-10T04:03:52.055Z,28
2023-06-10T04:05:08.183Z,28
2023-06-10T04:06:24.318Z,28
2023-06-10T04:07:40.454Z,28
2023-06-10T04:08:56.611Z,33
2023-06-10T04:10:12.740Z,28
2023-06-10T04:11:28.867Z,28
2023-06-10T04:12:45.003Z,33
2023-06-10T04:14:01.129Z,28
2023-06-10T04:15:17.275Z,33
2023-06-10T04:16:33.418Z,39
2023-06-10T04:17:49.555Z,39
2023-06-10T04:19:05.686Z,45
2023-06-10T04:20:21.819Z,45
2023-06-10T04:21:37.971Z,45
2023-06-10T04:22:54.092Z,50
2023-06-10T04:24:10.228Z,50
2023-06-10T04:25:26.368Z,50
2023-06-10T04:26:42.503Z,50
2023-06-10T04:27:58.652Z,50
2023-06-10T04:29:14.776Z,50
2023-06-10T04:30:30.902Z,50
2023-06-10T04:31:47.038Z,56
2023-06-10T04:33:03.187Z,56
2023-06-10T04:34:19.316Z,61
2023-06-10T04:35:35.453Z,56
2023-06-10T04:36:51.595Z,56
2023-06-10T04:38:07.728Z,56
2023-06-10T04:39:23.850Z,61
2023-06-10T04:40:40.002Z,56
2023-06-10T04:41:56.204Z,61
2023-06-10T04:43:11.439Z,56
2023-06-10T04:44:26.654Z,61
2023-06-10T04:45:42.780Z,67
2023-06-10T04:46:58.909Z,61
2023-06-10T04:48:15.041Z,67
2023-06-10T04:49:31.181Z,67
2023-06-10T04:50:47.326Z,78
2023-06-10T04:52:03.451Z,73
2023-06-10T04:53:19.592Z,61
2023-06-10T04:54:35.714Z,67
2023-06-10T04:55:51.000Z,84
2023-06-10T04:57:07.997Z,73
2023-06-10T04:58:24.134Z,78
2023-06-10T04:59:40.263Z,78
2023-06-10T05:00:56.402Z,78
2023-06-10T05:02:12.540Z,78
2023-06-10T05:03:28.685Z,84
2023-06-10T05:04:44.809Z,90
2023-06-10T05:06:00.953Z,78
2023-06-10T05:07:17.083Z,84
2023-06-10T05:08:33.212Z,84
2023-06-10T05:09:49.356Z,95
2023-06-10T05:11:05.490Z,84
2023-06-10T05:12:21.627Z,90
2023-06-10T05:13:37.763Z,90
2023-06-10T05:14:53.893Z,84
2023-06-10T05:16:10.096Z,84
2023-06-10T05:17:25.339Z,95
2023-06-10T05:18:41.529Z,90
2023-06-10T05:19:56.741Z,84
2023-06-10T05:21:12.866Z,90
2023-06-10T05:22:29.017Z,90
2023-06-10T05:23:45.150Z,95
2023-06-10T05:25:01.268Z,90
2023-06-10T05:26:17.431Z,90
2023-06-10T05:27:33.545Z,84
2023-06-10T05:28:49.689Z,95
2023-06-10T05:30:05.000Z,95
2023-06-10T05:31:21.951Z,106
2023-06-10T05:32:38.097Z,106
2023-06-10T05:33:54.236Z,95
2023-06-10T05:35:10.368Z,101
2023-06-10T05:36:26.512Z,118
2023-06-10T05:37:42.631Z,112
2023-06-10T05:38:58.775Z,112
2023-06-10T05:40:14.923Z,123
2023-06-10T05:41:31.059Z,123
2023-06-10T05:42:47.182Z,123
2023-06-10T05:44:03.318Z,112
2023-06-10T05:45:19.460Z,123
2023-06-10T05:46:35.589Z,123
2023-06-10T05:47:51.741Z,135
2023-06-10T05:49:07.860Z,140
2023-06-10T05:50:24.007Z,146
2023-06-10T05:51:40.201Z,146
2023-06-10T05:52:55.438Z,157
2023-06-10T05:54:10.655Z,146
2023-06-10T05:55:26.797Z,140
2023-06-10T05:56:42.917Z,140
2023-06-10T05:57:59.066Z,140
2023-06-10T05:59:15.194Z,151
2023-06-10T06:00:31.328Z,157
2023-06-10T06:01:47.465Z,157
2023-06-10T06:03:03.607Z,157
2023-06-10T06:04:19.733Z,157
2023-06-10T06:05:35.872Z,157
2023-06-10T06:06:52.002Z,168
2023-06-10T06:08:08.157Z,157
2023-06-10T06:09:24.282Z,151
2023-06-10T06:10:40.431Z,151
2023-06-10T06:11:56.564Z,168
2023-06-10T06:13:12.682Z,174
2023-06-10T06:14:28.832Z,174
2023-06-10T06:15:44.969Z,185
2023-06-10T06:17:01.096Z,196
2023-06-10T06:18:17.233Z,247
2023-06-10T06:19:33.378Z,270
2023-06-10T06:20:49.514Z,270
2023-06-10T06:22:05.650Z,258
2023-06-10T06:23:21.777Z,270
2023-06-10T06:24:37.909Z,253
2023-06-10T06:25:54.113Z,236
2023-06-10T06:27:09.345Z,225
2023-06-10T06:28:24.556Z,241
2023-06-10T06:29:40.687Z,247
2023-06-10T06:30:56.844Z,241
2023-06-10T06:32:12.976Z,247
2023-06-10T06:33:29.106Z,264
2023-06-10T06:34:45.240Z,286
2023-06-10T06:36:01.372Z,303
2023-06-10T06:37:17.529Z,331
2023-06-10T06:38:33.658Z,315
2023-06-10T06:39:49.787Z,315
2023-06-10T06:41:05.930Z,292
2023-06-10T06:42:22.057Z,281
2023-06-10T06:43:38.210Z,309
2023-06-10T06:44:54.329Z,343
2023-06-10T06:46:10.474Z,354
2023-06-10T06:47:26.605Z,360
2023-06-10T06:48:42.732Z,365
2023-06-10T06:49:58.881Z,343
2023-06-10T06:51:15.020Z,331
2023-06-10T06:52:31.144Z,303
2023-06-10T06:53:47.275Z,286
2023-06-10T06:55:03.407Z,303
2023-06-10T06:56:19.556Z,360
2023-06-10T06:57:35.691Z,360
2023-06-10T06:58:51.822Z,337
2023-06-10T07:00:08.026Z,315
2023-06-10T07:01:23.282Z,275
2023-06-10T07:02:39.477Z,258
2023-06-10T07:03:54.684Z,455
2023-06-10T07:05:10.815Z,1035
2023-06-10T07:06:26.964Z,1260
2023-06-10T07:07:43.102Z,1305
2023-06-10T07:08:59.232Z,1299
2023-06-10T07:10:15.361Z,1293
2023-06-10T07:11:31.497Z,1366
2023-06-10T07:12:47.636Z,1344
2023-06-10T07:14:03.774Z,1344
2023-06-10T07:15:19.911Z,1265
2023-06-10T07:16:36.050Z,1305
2023-06-10T07:17:52.185Z,1383
2023-06-10T07:19:08.317Z,1462
2023-06-10T07:20:24.448Z,1366
2023-06-10T07:21:40.597Z,1355
2023-06-10T07:22:56.716Z,1383
2023-06-10T07:24:12.865Z,1411
2023-06-10T07:25:29.002Z,1395
2023-06-10T07:26:45.148Z,1378
2023-06-10T07:28:01.279Z,1383
2023-06-10T07:29:17.407Z,1366
2023-06-10T07:30:33.549Z,1395
2023-06-10T07:31:49.687Z,1383
2023-06-10T07:33:05.821Z,1434
2023-06-10T07:34:21.955Z,1541
2023-06-10T07:35:38.148Z,1591
2023-06-10T07:36:53.381Z,1518
2023-06-10T07:38:08.594Z,1417
2023-06-10T07:39:24.855Z,1479
2023-06-10T07:40:40.993Z,1513
2023-06-10T07:41:57.140Z,1445
2023-06-10T07:43:13.266Z,1530
2023-06-10T07:44:29.406Z,1586
2023-06-10T07:45:45.542Z,1524
2023-06-10T07:47:01.675Z,1530
2023-06-10T07:48:17.827Z,1479
2023-06-10T07:49:33.947Z,1518
2023-06-10T07:50:50.075Z,1507
2023-06-10T07:52:06.227Z,1591
2023-06-10T07:53:22.352Z,1693
2023-06-10T07:54:38.506Z,1687
2023-06-10T07:55:54.625Z,1631
2023-06-10T07:57:10.774Z,1642
2023-06-10T07:58:26.909Z,1580
2023-06-10T07:59:43.036Z,1614
2023-06-10T08:00:59.186Z,1681
2023-06-10T08:02:15.319Z,1687
2023-06-10T08:03:31.451Z,1608
2023-06-10T08:04:47.579Z,1603
2023-06-10T08:06:03.711Z,1653
2023-06-10T08:07:19.875Z,1620
2023-06-10T08:08:35.997Z,1715
2023-06-10T08:09:52.141Z,1676
2023-06-10T08:11:08.265Z,1777
2023-06-10T08:12:24.401Z,1771
2023-06-10T08:13:40.554Z,1771
2023-06-10T08:14:56.677Z,1800
2023-06-10T08:16:12.817Z,1805
2023-06-10T08:17:28.954Z,1771
2023-06-10T08:18:45.099Z,1749
2023-06-10T08:20:01.245Z,1783
2023-06-10T08:21:17.372Z,1850
2023-06-10T08:22:33.645Z,1822
2023-06-10T08:23:48.797Z,1771
2023-06-10T08:25:04.959Z,1822
2023-06-10T08:26:21.095Z,1873
2023-06-10T08:27:37.228Z,1890
2023-06-10T08:28:53.359Z,1991
2023-06-10T08:30:09.495Z,1991
2023-06-10T08:31:25.632Z,1918
2023-06-10T08:32:41.775Z,1951
2023-06-10T08:33:57.901Z,1929
2023-06-10T08:35:14.037Z,1929
2023-06-10T08:36:30.183Z,1850
2023-06-10T08:37:46.328Z,1861
2023-06-10T08:39:02.464Z,1940
2023-06-10T08:40:18.589Z,1980
2023-06-10T08:41:34.737Z,2025
2023-06-10T08:42:50.870Z,2053
2023-06-10T08:44:07.005Z,2013
2023-06-10T08:45:23.149Z,2081
2023-06-10T08:46:39.272Z,2092
2023-06-10T08:47:55.422Z,2070
2023-06-10T08:49:11.552Z,2126
2023-06-10T08:50:27.698Z,2070
2023-06-10T08:51:43.837Z,1929
2023-06-10T08:52:59.962Z,2092
2023-06-10T08:54:16.109Z,2238
2023-06-10T08:55:32.226Z,2193
2023-06-10T08:56:48.395Z,2193
2023-06-10T08:58:04.514Z,2148
2023-06-10T08:59:20.648Z,2182
2023-06-10T09:00:36.791Z,2266
2023-06-10T09:01:52.917Z,2255
2023-06-10T09:03:09.066Z,1991
2023-06-10T09:04:25.202Z,1822
2023-06-10T09:05:41.348Z,1940
2023-06-10T09:06:57.482Z,2300
2023-06-10T09:08:13.614Z,2446
2023-06-10T09:09:29.750Z,2390
2023-06-10T09:10:45.956Z,2497
2023-06-10T09:12:01.197Z,2520
2023-06-10T09:13:16.402Z,2446
2023-06-10T09:14:32.544Z,2446
2023-06-10T09:15:48.667Z,2373
2023-06-10T09:17:04.810Z,2311
2023-06-10T09:18:20.939Z,2278
2023-06-10T09:19:37.081Z,2244
2023-06-10T09:20:53.218Z,2266
2023-06-10T09:22:09.353Z,2137
2023-06-10T09:23:25.496Z,2013
2023-06-10T09:24:41.627Z,2081
2023-06-10T09:25:57.781Z,2199
2023-06-10T09:27:13.912Z,2188
2023-06-10T09:28:30.038Z,2300
2023-06-10T09:29:46.189Z,2306
2023-06-10T09:31:02.318Z,2205
2023-06-10T09:32:18.471Z,2165
2023-06-10T09:33:34.601Z,2244
2023-06-10T09:34:50.727Z,2289
2023-06-10T09:36:06.878Z,2250
2023-06-10T09:37:23.011Z,2216
2023-06-10T09:38:39.146Z,2165
2023-06-10T09:39:55.286Z,2250
2023-06-10T09:41:11.424Z,2199
2023-06-10T09:42:27.556Z,2199
2023-06-10T09:43:43.693Z,2165
2023-06-10T09:44:59.906Z,2171
2023-06-10T09:46:15.151Z,2227
2023-06-10T09:47:30.350Z,2216
2023-06-10T09:48:46.494Z,2188
2023-06-10T09:50:02.639Z,2221
2023-06-10T09:51:18.778Z,2272
2023-06-10T09:52:34.899Z,2238
2023-06-10T09:53:51.043Z,2255
2023-06-10T09:55:07.182Z,2295
2023-06-10T09:56:23.318Z,2233
2023-06-10T09:57:39.449Z,2137
2023-06-10T09:58:55.585Z,2368
2023-06-10T10:00:11.728Z,2486
2023-06-10T10:01:27.880Z,2368
2023-06-10T10:02:44.009Z,2441
2023-06-10T10:04:00.153Z,2396
2023-06-10T10:05:16.280Z,2660
2023-06-10T10:06:32.423Z,3138
2023-06-10T10:07:48.575Z,4033
2023-06-10T10:09:04.699Z,4404
2023-06-10T10:10:20.827Z,2559
2023-06-10T10:11:36.985Z,995
2023-06-10T10:12:53.096Z,810
2023-06-10T10:14:09.254Z,765
2023-06-10T10:15:25.394Z,759
2023-06-10T10:16:41.521Z,753
2023-06-10T10:17:57.667Z,759
2023-06-10T10:19:13.857Z,753
2023-06-10T10:20:29.104Z,748
2023-06-10T10:21:44.294Z,736
2023-06-10T10:23:00.439Z,742
2023-06-10T10:24:16.597Z,736
2023-06-10T10:25:32.728Z,742
2023-06-10T10:26:48.851Z,731
2023-06-10T10:28:05.001Z,736
2023-06-10T10:29:21.128Z,736
2023-06-10T10:30:37.277Z,736
2023-06-10T10:31:53.418Z,748
2023-06-10T10:33:09.555Z,753
2023-06-10T10:34:25.693Z,748
2023-06-10T10:35:41.828Z,759
2023-06-10T10:36:57.976Z,753
2023-06-10T10:38:14.108Z,748
2023-06-10T10:39:30.246Z,759
2023-06-10T10:40:46.367Z,759
2023-06-10T10:42:02.502Z,753
2023-06-10T10:43:18.649Z,748
2023-06-10T10:44:34.794Z,742
2023-06-10T10:45:50.926Z,759
2023-06-10T10:47:07.070Z,770
2023-06-10T10:48:23.192Z,787
2023-06-10T10:49:39.344Z,781
2023-06-10T10:50:55.480Z,787
2023-06-10T10:52:11.610Z,787
2023-06-10T10:53:27.803Z,810
2023-06-10T10:54:43.057Z,815
2023-06-10T10:55:59.236Z,826
2023-06-10T10:57:14.452Z,832
2023-06-10T10:58:30.593Z,838
2023-06-10T10:59:46.736Z,849
2023-06-10T11:01:02.871Z,843
2023-06-10T11:02:19.015Z,843
2023-06-10T11:03:35.142Z,832
2023-06-10T11:04:51.291Z,832
2023-06-10T11:06:07.418Z,838
2023-06-10T11:07:23.554Z,849
2023-06-10T11:08:39.698Z,838
2023-06-10T11:09:55.824Z,843
2023-06-10T11:11:11.957Z,871
2023-06-10T11:12:28.124Z,855
2023-06-10T11:13:44.260Z,866
2023-06-10T11:15:00.393Z,871
2023-06-10T11:16:16.532Z,883
2023-06-10T11:17:32.649Z,883
2023-06-10T11:18:48.813Z,871
2023-06-10T11:20:04.951Z,855
2023-06-10T11:21:21.068Z,838
2023-06-10T11:22:37.202Z,810
2023-06-10T11:23:53.347Z,793
2023-06-10T11:25:09.488Z,753
2023-06-10T11:26:25.633Z,624
2023-06-10T11:27:41.760Z,270
2023-06-10T11:28:57.960Z,219
2023-06-10T11:30:13.227Z,213
2023-06-10T11:31:28.430Z,208
2023-06-10T11:32:43.570Z,208
2023-06-10T11:33:59.725Z,202
2023-06-10T11:35:15.862Z,202
2023-06-10T11:36:32.001Z,202
2023-06-10T11:37:48.121Z,202
2023-06-10T11:39:04.259Z,202
2023-06-10T11:40:20.421Z,196
2023-06-10T11:41:36.540Z,196
2023-06-10T11:42:52.672Z,196
2023-06-10T11:44:08.809Z,191
2023-06-10T11:45:24.947Z,191
2023-06-10T11:46:41.097Z,191
2023-06-10T11:47:57.236Z,185
2023-06-10T11:49:13.362Z,185
2023-06-10T11:50:29.498Z,180
2023-06-10T11:51:45.623Z,180
2023-06-10T11:53:01.787Z,185
2023-06-10T11:54:17.924Z,180
2023-06-10T11:55:34.038Z,180
2023-06-10T11:56:50.186Z,180
2023-06-10T11:58:06.310Z,180
2023-06-10T11:59:22.469Z,180
2023-06-10T12:00:38.598Z,180
2023-06-10T12:01:54.733Z,174
2023-06-10T12:03:10.863Z,174
2023-06-10T12:04:27.006Z,168
2023-06-10T12:05:43.154Z,163
2023-06-10T12:06:59.276Z,163
2023-06-10T12:08:15.407Z,163
2023-06-10T12:09:31.540Z,163
2023-06-10T12:10:47.677Z,163
2023-06-10T12:12:03.825Z,163
2023-06-10T12:13:19.966Z,163
2023-06-10T12:14:36.101Z,163
2023-06-10T12:15:52.232Z,163
2023-06-10T12:17:08.362Z,163
2023-06-10T12:18:24.524Z,157
2023-06-10T12:19:40.709Z,151
2023-06-10T12:20:55.952Z,151
2023-06-10T12:22:11.156Z,146
2023-06-10T12:23:27.279Z,146
2023-06-10T12:24:43.421Z,146
2023-06-10T12:25:59.560Z,140
2023-06-10T12:27:15.687Z,140
2023-06-10T12:28:31.833Z,140
2023-06-10T12:29:47.972Z,135
2023-06-10T12:31:04.115Z,135
2023-06-10T12:32:20.246Z,129
2023-06-10T12:33:36.371Z,129
2023-06-10T12:34:52.510Z,129
2023-06-10T12:36:08.656Z,129
2023-06-10T12:37:24.781Z,135
2023-06-10T12:38:40.921Z,129
2023-06-10T12:39:57.049Z,123
2023-06-10T12:41:13.204Z,118
2023-06-10T12:42:29.337Z,118
2023-06-10T12:43:45.479Z,118
2023-06-10T12:45:01.606Z,118
2023-06-10T12:46:17.744Z,118
2023-06-10T12:47:33.893Z,118
2023-06-10T12:48:50.013Z,118
2023-06-10T12:50:06.159Z,118
2023-06-10T12:51:22.294Z,118
2023-06-10T12:52:38.417Z,118
2023-06-10T12:53:54.628Z,118
2023-06-10T12:55:09.858Z,112
2023-06-10T12:56:25.067Z,112
2023-06-10T12:57:41.212Z,112
2023-06-10T12:58:57.341Z,112
2023-06-10T13:00:13.488Z,112
2023-06-10T13:01:29.616Z,112
2023-06-10T13:02:45.759Z,112
2023-06-10T13:04:01.901Z,106
2023-06-10T13:05:18.030Z,106
2023-06-10T13:06:34.174Z,106
2023-06-10T13:07:50.306Z,106
2023-06-10T13:09:06.438Z,101
2023-06-10T13:10:22.581Z,101
2023-06-10T13:11:38.723Z,101
2023-06-10T13:12:54.840Z,101
2023-06-10T13:14:10.983Z,101
2023-06-10T13:15:27.124Z,101
2023-06-10T13:16:43.260Z,95
2023-06-10T13:17:59.389Z,95
2023-06-10T13:19:15.537Z,95
2023-06-10T13:20:31.653Z,95
2023-06-10T13:21:47.788Z,95
2023-06-10T13:23:03.943Z,95
2023-06-10T13:24:20.068Z,95
2023-06-10T13:25:36.214Z,90
2023-06-10T13:26:52.350Z,90
2023-06-10T13:28:08.541Z,90
2023-06-10T13:29:23.766Z,90
2023-06-10T13:30:39.961Z,90
2023-06-10T13:31:55.166Z,90
2023-06-10T13:33:11.307Z,95
2023-06-10T13:34:27.440Z,90
2023-06-10T13:35:43.585Z,90
2023-06-10T13:36:59.715Z,90
2023-06-10T13:38:15.857Z,90
2023-06-10T13:39:31.999Z,90
2023-06-10T13:40:48.140Z,90
2023-06-10T13:42:04.267Z,84
2023-06-10T13:43:20.403Z,84
2023-06-10T13:44:36.531Z,84
2023-06-10T13:45:52.677Z,84
2023-06-10T13:47:08.806Z,84
2023-06-10T13:48:24.940Z,84
2023-06-10T13:49:41.078Z,84
2023-06-10T13:50:57.206Z,84
2023-06-10T13:52:13.359Z,84
2023-06-10T13:53:29.503Z,84
2023-06-10T13:54:45.621Z,78
2023-06-10T13:56:01.760Z,78
2023-06-10T13:57:17.893Z,78
2023-06-10T13:58:34.041Z,84
2023-06-10T13:59:50.170Z,84
2023-06-10T14:01:06.301Z,84
2023-06-10T14:02:22.440Z,84
2023-06-10T14:03:38.631Z,78
2023-06-10T14:04:53.868Z,78
2023-06-10T14:06:09.088Z,78
2023-06-10T14:07:25.215Z,78
2023-06-10T14:08:41.350Z,78
2023-06-10T14:09:57.486Z,78
2023-06-10T14:11:13.618Z,84
2023-06-10T14:12:29.756Z,84
2023-06-10T14:13:45.888Z,90
2023-06-10T14:15:02.050Z,95
2023-06-10T14:16:18.173Z,101
2023-06-10T14:17:34.313Z,106
2023-06-10T14:18:50.439Z,101
2023-06-10T14:20:06.566Z,95
2023-06-10T14:21:22.727Z,90
2023-06-10T14:23:54.993Z,78
2023-06-10T14:25:11.118Z,73
2023-06-10T14:26:27.247Z,78
2023-06-10T14:27:43.400Z,84
2023-06-10T14:28:59.542Z,95
2023-06-10T14:30:15.661Z,106
2023-06-10T14:31:31.790Z,106
2023-06-10T14:32:47.927Z,95
2023-06-10T14:34:04.084Z,95
2023-06-10T14:35:20.220Z,101
2023-06-10T14:36:36.337Z,106
2023-06-10T14:37:52.543Z,112
2023-06-10T14:39:07.768Z,123
2023-06-10T14:40:22.978Z,129
2023-06-10T14:41:38.140Z,123
2023-06-10T14:44:10.417Z,106
2023-06-10T14:45:26.540Z,112
2023-06-10T14:46:42.000Z,118
2023-06-10T14:47:58.806Z,112
2023-06-10T14:49:14.970Z,118
2023-06-10T14:50:31.086Z,123
2023-06-10T14:51:47.218Z,123
2023-06-10T14:53:03.364Z,129
2023-06-10T14:54:19.490Z,135
2023-06-10T14:55:35.632Z,140
2023-06-10T14:56:51.767Z,129
2023-06-10T14:58:07.905Z,118
2023-06-10T14:59:24.034Z,118
2023-06-10T15:00:40.181Z,118
2023-06-10T15:01:56.324Z,123
2023-06-10T15:03:12.448Z,129
2023-06-10T15:04:28.583Z,135
2023-06-10T15:05:44.716Z,135
2023-06-10T15:07:00.846Z,140
2023-06-10T15:08:17.004Z,135
2023-06-10T15:09:33.130Z,135
2023-06-10T15:10:49.260Z,129
2023-06-10T15:12:05.395Z,123
2023-06-10T15:13:21.536Z,118
2023-06-10T15:14:37.691Z,101
2023-06-10T15:15:53.815Z,90
2023-06-10T15:17:09.947Z,78
2023-06-10T15:18:26.081Z,78
2023-06-10T15:19:42.216Z,67
2023-06-10T15:20:58.370Z,67
2023-06-10T15:22:14.491Z,56
2023-06-10T15:23:30.636Z,56
2023-06-10T15:24:46.756Z,50
2023-06-10T15:26:02.901Z,45
2023-06-10T15:27:19.040Z,45
2023-06-10T15:28:35.246Z,45
2023-06-10T15:29:50.480Z,45
2023-06-10T15:31:05.688Z,45
2023-06-10T15:32:21.827Z,39
2023-06-10T15:33:37.949Z,39
2023-06-10T15:34:54.095Z,39
2023-06-10T15:36:10.223Z,33
2023-06-10T15:37:26.365Z,33
2023-06-10T15:38:42.499Z,33
2023-06-10T15:39:58.639Z,28
2023-06-10T15:41:14.768Z,28
2023-06-10T15:42:31.033Z,28
2023-06-10T15:43:47.163Z,28
2023-06-10T15:45:03.313Z,28
2023-06-10T15:46:19.433Z,28
2023-06-10T15:47:35.574Z,28
2023-06-10T15:48:51.705Z,28
2023-06-10T15:50:07.845Z,28
2023-06-10T15:51:23.980Z,28
2023-06-10T15:52:40.116Z,28
2023-06-10T15:53:56.257Z,28
2023-06-10T15:55:12.385Z,28
2023-06-10T15:56:28.542Z,28
2023-06-10T15:57:44.661Z,28
2023-06-10T15:59:00.803Z,28
2023-06-10T16:00:16.937Z,33
2023-06-10T16:01:33.073Z,33
2023-06-10T16:02:49.222Z,33
2023-06-10T16:04:05.358Z,33
2023-06-10T16:05:21.495Z,33
2023-06-10T16:06:37.624Z,39
2023-06-10T16:07:53.750Z,45
2023-06-10T16:09:09.909Z,50
2023-06-10T16:10:26.044Z,56
2023-06-10T16:11:42.177Z,61
2023-06-10T16:12:58.302Z,67
2023-06-10T16:14:14.431Z,67
2023-06-10T16:15:30.584Z,73
2023-06-10T16:16:46.723Z,73
2023-06-10T16:18:02.853Z,78
2023-06-10T16:19:18.980Z,78
2023-06-10T16:20:35.111Z,78
2023-06-10T16:21:51.266Z,78
2023-06-10T16:23:07.391Z,78
2023-06-10T16:24:23.530Z,67
2023-06-10T16:25:39.660Z,61
2023-06-10T16:26:55.793Z,56
2023-06-10T16:28:11.954Z,50
2023-06-10T16:29:28.136Z,45
2023-06-10T16:30:43.357Z,45
2023-06-10T16:31:58.506Z,39
2023-06-10T16:33:14.631Z,39
2023-06-10T16:34:30.763Z,39
2023-06-10T16:35:46.897Z,39
2023-06-10T16:37:03.030Z,33
2023-06-10T16:38:19.183Z,33
2023-06-10T16:39:35.318Z,33
2023-06-10T16:40:51.440Z,33
2023-06-10T16:42:07.575Z,33
2023-06-10T16:43:23.707Z,28
2023-06-10T16:44:39.857Z,28
2023-06-10T16:45:55.995Z,28
2023-06-10T16:47:12.126Z,28
2023-06-10T16:48:28.263Z,33
2023-06-10T16:49:44.393Z,33
2023-06-10T16:51:00.548Z,39
2023-06-10T16:52:16.672Z,39
2023-06-10T16:53:32.807Z,45
2023-06-10T16:54:48.937Z,50
2023-06-10T16:56:05.082Z,50
2023-06-10T16:57:21.221Z,50
2023-06-10T16:58:37.356Z,56
2023-06-10T16:59:53.485Z,56
2023-06-10T17:01:09.636Z,56
2023-06-10T17:02:25.762Z,50
2023-06-10T17:03:41.912Z,50
2023-06-10T17:04:58.052Z,50
2023-06-10T17:06:14.174Z,50
2023-06-10T17:07:30.318Z,45
2023-06-10T17:08:46.444Z,45
2023-06-10T17:10:02.584Z,45
2023-06-10T17:11:18.719Z,45
2023-06-10T17:12:34.850Z,45
2023-06-10T17:13:50.993Z,45
2023-06-10T17:15:07.130Z,45
2023-06-10T17:16:23.262Z,45
2023-06-10T17:17:39.412Z,45
2023-06-10T17:18:55.589Z,45
2023-06-10T17:20:10.801Z,45
2023-06-10T17:21:26.948Z,45
2023-06-10T17:22:43.072Z,39
2023-06-10T17:23:59.210Z,45
2023-06-10T17:25:15.348Z,45
2023-06-10T17:26:31.475Z,45
2023-06-10T17:27:47.636Z,45
2023-06-10T17:29:03.769Z,39
2023-06-10T17:30:19.888Z,39
2023-06-10T17:31:36.029Z,39
2023-06-10T17:32:52.167Z,33
2023-06-10T17:34:08.320Z,33
2023-06-10T17:35:24.442Z,28
2023-06-10T17:36:40.587Z,28
2023-06-10T17:37:56.714Z,28
2023-06-10T17:39:12.963Z,28
2023-06-10T17:40:29.123Z,28
2023-06-10T17:41:45.241Z,28
2023-06-10T17:43:01.374Z,33
2023-06-10T17:44:17.513Z,33
2023-06-10T17:45:33.640Z,33
2023-06-10T17:46:49.792Z,39
2023-06-10T17:48:05.939Z,39
2023-06-10T17:49:22.066Z,45
2023-06-10T17:50:38.200Z,45
2023-06-10T17:51:54.330Z,45